Time;durP1;ratioP1;P1;durP2;ratioP2;P2;SDS_P1;SDS_P2;PMS_P1;PMS_P2;Temp;Humidity;BMP_temperature;BMP_pressure;BME280_temperature;BME280_humidity;BME280_pressure;Samples;Min_cycle;Max_cycle;Signal;HPM_P1;HPM_P2
2023/03/20 00:01:16;;;;;;;4.45;4.05;;;9.50;99.90;;;;;;5045837;28;20205;-88
2023/03/20 00:03:45;;;;;;;6.95;3.95;;;9.50;99.90;;;;;;5050847;28;20201;-88
2023/03/20 00:06:18;;;;;;;7.70;6.25;;;9.40;99.90;;;;;;5026755;28;20203;-88
2023/03/20 00:08:45;;;;;;;5.65;4.40;;;9.40;99.90;;;;;;5042493;28;20205;-88
2023/03/20 00:11:27;;;;;;;4.85;4.10;;;9.40;99.90;;;;;;5048363;28;20281;-88
2023/03/20 00:13:55;;;;;;;4.90;4.00;;;9.40;99.90;;;;;;5050330;28;20198;-88
2023/03/20 00:16:24;;;;;;;10.90;6.65;;;9.40;99.90;;;;;;5042550;28;20226;-88
2023/03/20 00:18:55;;;;;;;10.93;8.85;;;9.30;99.90;;;;;;5016492;28;20260;-89
2023/03/20 00:21:22;;;;;;;8.73;6.38;;;9.40;99.90;;;;;;5042550;28;20198;-88
2023/03/20 00:23:49;;;;;;;4.10;3.70;;;9.40;99.90;;;;;;5047980;28;20673;-88
2023/03/20 00:26:18;;;;;;;5.75;3.92;;;9.50;99.90;;;;;;5048069;28;20211;-87
2023/03/20 00:28:46;;;;;;;7.32;6.43;;;9.50;99.90;;;;;;5041208;28;20225;-88
2023/03/20 00:31:23;;;;;;;8.18;6.80;;;9.40;99.90;;;;;;5042221;28;20202;-87
2023/03/20 00:33:52;;;;;;;6.10;5.10;;;9.40;99.90;;;;;;5043388;28;20202;-88
2023/03/20 00:36:19;;;;;;;7.45;6.38;;;9.40;99.90;;;;;;5031118;28;20202;-88
2023/03/20 00:38:46;;;;;;;4.25;3.20;;;9.60;99.90;;;;;;5033899;28;20206;-87
2023/03/20 00:41:23;;;;;;;4.80;3.30;;;9.50;99.90;;;;;;5045052;28;20197;-88
2023/03/20 00:43:53;;;;;;;3.20;2.90;;;9.40;99.90;;;;;;5050182;28;20209;-88
2023/03/20 00:46:20;;;;;;;8.38;6.82;;;9.40;99.90;;;;;;5035925;28;20186;-87
2023/03/20 00:48:47;;;;;;;4.72;2.80;;;9.40;99.90;;;;;;5036062;28;20205;-88
2023/03/20 00:51:15;;;;;;;10.20;8.75;;;9.30;99.90;;;;;;5022144;28;20199;-88
2023/03/20 00:53:42;;;;;;;3.72;3.20;;;9.40;99.90;;;;;;5051787;28;20207;-87
2023/03/20 00:56:30;;;;;;;4.40;2.78;;;9.40;99.90;;;;;;5026343;28;20202;-88
2023/03/20 00:58:57;;;;;;;13.57;10.30;;;9.40;99.90;;;;;;5049901;28;20228;-87
2023/03/20 01:01:24;;;;;;;6.65;4.75;;;9.50;99.90;;;;;;5050803;28;20563;-87
2023/03/20 01:03:51;;;;;;;10.30;8.60;;;9.60;99.90;;;;;;5032259;28;20225;-87
2023/03/20 01:06:19;;;;;;;21.27;17.20;;;9.60;99.90;;;;;;5050014;28;20202;-87
2023/03/20 01:08:47;;;;;;;8.68;7.43;;;9.60;99.90;;;;;;5031588;28;20292;-87
2023/03/20 01:11:16;;;;;;;4.57;3.70;;;9.70;99.90;;;;;;5023738;28;20206;-87
2023/03/20 01:13:43;;;;;;;2.92;2.63;;;9.70;99.90;;;;;;5040032;28;20195;-88
2023/03/20 01:16:20;;;;;;;3.25;2.78;;;9.50;99.90;;;;;;5046798;28;20222;-88
2023/03/20 01:18:48;;;;;;;4.13;3.47;;;9.40;99.90;;;;;;5041661;28;20198;-88
2023/03/20 01:21:16;;;;;;;4.88;4.28;;;9.40;99.90;;;;;;5041725;28;20190;-87
2023/03/20 01:23:44;;;;;;;13.57;11.38;;;9.40;99.90;;;;;;5023706;28;20228;-87
2023/03/20 01:26:35;;;;;;;13.68;10.60;;;9.40;99.90;;;;;;5048317;28;20197;-87
2023/03/20 01:29:03;;;;;;;12.77;10.52;;;9.50;99.90;;;;;;5040300;28;20198;-88
2023/03/20 01:31:29;;;;;;;6.80;5.72;;;9.40;99.90;;;;;;5049464;28;20217;-87
2023/03/20 01:33:57;;;;;;;7.97;5.75;;;9.40;99.90;;;;;;5043549;28;20198;-87
2023/03/20 01:36:24;;;;;;;5.05;4.38;;;9.30;99.90;;;;;;5041753;28;20242;-88
2023/03/20 01:38:57;;;;;;;6.45;4.82;;;9.30;99.90;;;;;;5051129;28;20201;-87
2023/03/20 01:41:25;;;;;;;5.70;4.57;;;9.30;99.90;;;;;;5042415;28;20666;-87
2023/03/20 01:43:52;;;;;;;5.85;4.57;;;9.30;99.90;;;;;;5052573;28;20624;-88
2023/03/20 01:46:24;;;;;;;5.38;4.45;;;9.30;99.90;;;;;;5050595;28;20197;-88
2023/03/20 01:49:08;;;;;;;4.55;3.22;;;9.50;99.90;;;;;;5051897;28;20550;-88
2023/03/20 01:51:36;;;;;;;6.35;4.47;;;9.50;99.90;;;;;;5045816;28;20591;-87
2023/03/20 01:54:07;;;;;;;3.25;2.95;;;9.40;99.90;;;;;;5026770;28;20195;-87
2023/03/20 01:56:39;;;;;;;3.90;3.50;;;9.40;99.90;;;;;;5046794;28;20209;-87
2023/03/20 01:59:10;;;;;;;4.05;3.22;;;9.40;99.90;;;;;;5047007;28;20565;-87
2023/03/20 02:01:38;;;;;;;2.70;2.42;;;9.30;99.90;;;;;;5049586;28;20208;-87
2023/03/20 02:04:07;;;;;;;2.70;2.50;;;9.30;99.90;;;;;;5043378;28;20698;-88
2023/03/20 02:06:36;;;;;;;5.63;4.82;;;9.30;99.90;;;;;;5039647;28;20210;-87
2023/03/20 02:09:04;;;;;;;4.70;3.55;;;9.20;99.90;;;;;;5029367;28;20230;-88
2023/03/20 02:11:32;;;;;;;5.78;3.85;;;9.40;99.90;;;;;;5050977;28;20223;-87
2023/03/20 02:14:00;;;;;;;7.38;4.80;;;9.40;99.90;;;;;;5050725;28;20206;-87
2023/03/20 02:16:28;;;;;;;3.40;2.67;;;9.50;99.90;;;;;;5024478;28;20209;-87
2023/03/20 02:18:56;;;;;;;5.97;3.42;;;9.50;99.90;;;;;;5030516;28;20341;-87
2023/03/20 02:22:07;;;;;;;3.10;2.80;;;9.40;99.90;;;;;;5044573;28;20194;-87
2023/03/20 02:25:22;;;;;;;2.53;2.00;;;9.40;99.90;;;;;;5033319;28;21033;-87
2023/03/20 02:28:09;;;;;;;2.90;2.70;;;9.30;99.90;;;;;;5008602;28;20205;-88
2023/03/20 02:30:57;;;;;;;2.78;2.13;;;9.20;99.90;;;;;;5037383;28;20277;-87
2023/03/20 02:34:08;;;;;;;2.25;1.90;;;9.10;99.90;;;;;;5023610;28;20187;-87
2023/03/20 02:37:05;;;;;;;2.42;1.90;;;9.10;99.90;;;;;;5011969;28;20554;-87
2023/03/20 02:39:58;;;;;;;2.38;2.17;;;9.10;99.90;;;;;;5038954;28;20201;-87
2023/03/20 02:42:32;;;;;;;3.45;3.13;;;9.10;99.90;;;;;;5045251;28;20222;-87
2023/03/20 02:45:08;;;;;;;2.13;1.92;;;9.10;99.90;;;;;;5041129;28;20237;-87
2023/03/20 02:47:41;;;;;;;3.78;3.33;;;9.10;99.90;;;;;;5039554;28;20198;-87
2023/03/20 02:50:14;;;;;;;4.22;3.20;;;9.20;99.90;;;;;;5037778;28;20195;-87
2023/03/20 02:52:47;;;;;;;3.95;3.08;;;9.20;99.90;;;;;;5038704;28;20206;-87
2023/03/20 02:55:20;;;;;;;2.72;1.83;;;9.20;99.90;;;;;;5018864;28;20206;-88
2023/03/20 02:57:57;;;;;;;2.22;1.70;;;9.20;99.90;;;;;;5043500;28;20197;-88
2023/03/20 03:00:29;;;;;;;3.72;3.10;;;9.20;99.90;;;;;;5041165;28;20201;-88
2023/03/20 03:03:01;;;;;;;2.10;1.90;;;9.30;99.90;;;;;;5028896;28;20637;-87
2023/03/20 03:05:36;;;;;;;2.35;2.15;;;9.20;99.90;;;;;;5050358;28;20230;-87
2023/03/20 03:08:06;;;;;;;3.25;2.10;;;9.20;99.90;;;;;;5046920;28;20202;-88
2023/03/20 03:10:40;;;;;;;3.17;2.10;;;9.10;99.90;;;;;;5039556;28;20190;-87
2023/03/20 03:13:14;;;;;;;2.47;2.13;;;9.00;99.90;;;;;;5036386;28;20297;-87
2023/03/20 03:15:44;;;;;;;3.03;2.40;;;9.00;99.90;;;;;;5026643;28;20208;-87
2023/03/20 03:18:16;;;;;;;3.05;2.75;;;9.00;99.90;;;;;;5040571;28;20564;-88
2023/03/20 03:20:45;;;;;;;3.00;2.70;;;9.00;99.90;;;;;;5029324;28;20194;-88
2023/03/20 03:23:21;;;;;;;2.90;2.35;;;9.00;99.90;;;;;;5040529;28;20237;-87
2023/03/20 03:25:50;;;;;;;4.32;1.70;;;9.10;99.90;;;;;;5042824;28;20706;-87
2023/03/20 03:28:26;;;;;;;2.30;2.10;;;9.00;99.90;;;;;;5036395;28;20424;-88
2023/03/20 03:30:56;;;;;;;2.60;2.17;;;9.00;99.90;;;;;;5049012;28;20209;-87
2023/03/20 03:33:26;;;;;;;2.08;1.88;;;9.10;99.90;;;;;;5045457;28;20209;-87
2023/03/20 03:35:55;;;;;;;5.32;3.75;;;9.00;99.90;;;;;;5038353;28;20195;-87
2023/03/20 03:38:31;;;;;;;3.67;2.08;;;9.10;99.90;;;;;;5041972;28;20205;-88
2023/03/20 03:41:08;;;;;;;4.38;2.95;;;9.10;99.90;;;;;;5045647;28;20744;-87
2023/03/20 03:43:41;;;;;;;3.05;2.75;;;9.00;99.90;;;;;;5040054;28;20682;-87
2023/03/20 03:46:13;;;;;;;2.65;2.00;;;9.10;99.90;;;;;;5039915;28;20202;-88
2023/03/20 03:48:45;;;;;;;3.40;3.10;;;9.10;99.90;;;;;;5039197;28;20190;-88
2023/03/20 03:51:16;;;;;;;2.80;2.50;;;9.10;99.90;;;;;;5042616;28;20680;-87
2023/03/20 03:53:47;;;;;;;2.35;2.15;;;9.10;99.90;;;;;;5045502;28;20206;-87
2023/03/20 03:56:20;;;;;;;3.63;3.33;;;9.00;99.90;;;;;;5018274;28;20272;-89
2023/03/20 03:58:51;;;;;;;4.47;4.05;;;9.00;99.90;;;;;;5036946;28;20222;-88
2023/03/20 04:01:18;;;;;;;2.30;2.10;;;9.10;99.90;;;;;;5026634;28;20202;-88
2023/03/20 04:03:50;;;;;;;3.33;3.00;;;9.10;99.90;;;;;;5043130;28;20218;-87
2023/03/20 04:06:18;;;;;;;2.90;2.30;;;9.10;99.90;;;;;;5036963;28;20198;-88
2023/03/20 04:08:45;;;;;;;3.08;2.78;;;9.20;99.90;;;;;;5027084;28;21132;-88
2023/03/20 04:11:17;;;;;;;2.53;2.33;;;9.30;99.90;;;;;;5045382;28;20201;-89
2023/03/20 04:13:45;;;;;;;3.25;2.90;;;9.10;99.90;;;;;;5042272;28;20209;-87
2023/03/20 04:16:13;;;;;;;2.65;2.45;;;9.30;99.90;;;;;;5045486;28;20206;-87
2023/03/20 04:18:41;;;;;;;3.50;2.67;;;9.30;99.90;;;;;;5023401;28;20721;-90
2023/03/20 04:21:08;;;;;;;2.55;2.35;;;9.20;99.90;;;;;;5041944;28;20199;-87
2023/03/20 04:23:36;;;;;;;3.85;3.40;;;9.20;99.90;;;;;;5039743;28;20230;-88
2023/03/20 04:26:03;;;;;;;2.38;2.17;;;9.20;99.90;;;;;;5041426;28;20205;-87
2023/03/20 04:28:31;;;;;;;2.40;2.17;;;9.20;99.90;;;;;;5044745;28;20659;-87
2023/03/20 04:31:00;;;;;;;4.05;2.20;;;9.10;99.90;;;;;;5049043;28;20308;-88
2023/03/20 04:33:27;;;;;;;2.83;2.30;;;9.10;99.90;;;;;;5040064;28;20202;-87
2023/03/20 04:35:54;;;;;;;2.53;2.10;;;9.10;99.90;;;;;;5044744;28;20203;-87
2023/03/20 04:38:22;;;;;;;4.20;3.20;;;9.00;99.90;;;;;;5031289;28;20672;-87
2023/03/20 04:40:50;;;;;;;2.30;2.10;;;9.10;99.90;;;;;;5033668;28;20281;-88
2023/03/20 04:43:17;;;;;;;3.72;3.35;;;9.00;99.90;;;;;;5046887;28;20683;-88
2023/03/20 04:45:45;;;;;;;4.25;3.20;;;9.00;99.90;;;;;;5041400;28;20576;-87
2023/03/20 04:48:12;;;;;;;2.65;2.15;;;9.10;99.90;;;;;;5032541;28;20229;-88
2023/03/20 04:50:39;;;;;;;3.17;1.92;;;9.10;99.90;;;;;;5042569;28;20201;-89
2023/03/20 04:53:06;;;;;;;2.30;2.10;;;9.10;99.90;;;;;;5025973;28;20642;-88
2023/03/20 04:55:33;;;;;;;2.47;2.00;;;9.10;99.90;;;;;;5032206;28;20212;-89
2023/03/20 04:58:00;;;;;;;3.17;2.67;;;9.00;99.90;;;;;;5042998;28;20210;-88
2023/03/20 05:00:27;;;;;;;2.10;1.90;;;9.10;99.90;;;;;;5047657;28;20685;-90
2023/03/20 05:02:56;;;;;;;3.22;2.28;;;9.20;99.90;;;;;;5042970;28;20546;-87
2023/03/20 05:05:23;;;;;;;3.67;2.45;;;9.20;99.90;;;;;;5045974;28;20234;-87
2023/03/20 05:07:50;;;;;;;2.60;2.40;;;9.30;99.90;;;;;;5029331;28;20201;-89
2023/03/20 05:10:18;;;;;;;2.92;1.80;;;9.20;99.90;;;;;;5049242;28;20205;-87
2023/03/20 05:12:45;;;;;;;3.08;2.20;;;9.20;99.50;;;;;;5041405;28;20202;-87
2023/03/20 05:15:12;;;;;;;2.30;2.10;;;9.30;99.00;;;;;;5044397;28;20197;-88
2023/03/20 05:17:39;;;;;;;2.47;2.13;;;9.30;98.90;;;;;;5043061;28;20659;-88
2023/03/20 05:20:09;;;;;;;3.13;2.60;;;9.30;98.70;;;;;;5041807;28;20222;-87
2023/03/20 05:22:36;;;;;;;2.38;2.17;;;9.30;98.80;;;;;;5049432;28;20222;-88
2023/03/20 05:25:03;;;;;;;2.33;2.13;;;9.20;98.40;;;;;;5047025;28;20228;-89
2023/03/20 05:27:30;;;;;;;2.95;2.65;;;9.20;98.60;;;;;;5037269;28;20210;-88
2023/03/20 05:29:57;;;;;;;1.90;1.80;;;9.20;98.90;;;;;;5046990;28;20201;-88
2023/03/20 05:32:24;;;;;;;2.63;2.00;;;9.20;99.10;;;;;;5041771;28;20199;-87
2023/03/20 05:34:51;;;;;;;2.35;2.15;;;9.20;99.70;;;;;;5043146;28;20202;-87
2023/03/20 05:37:19;;;;;;;2.45;2.25;;;9.10;99.80;;;;;;5043085;28;20199;-88
2023/03/20 05:39:46;;;;;;;3.45;2.10;;;9.20;99.80;;;;;;5042639;28;20217;-87
2023/03/20 05:42:12;;;;;;;2.03;1.85;;;9.10;99.50;;;;;;5042331;28;20206;-87
2023/03/20 05:44:39;;;;;;;3.47;2.42;;;9.10;99.90;;;;;;5052337;28;20293;-88
2023/03/20 05:47:06;;;;;;;3.20;2.80;;;9.10;99.90;;;;;;5045073;28;20635;-87
2023/03/20 05:49:33;;;;;;;3.97;2.83;;;9.20;99.90;;;;;;5025956;28;20206;-87
2023/03/20 05:52:00;;;;;;;2.90;2.70;;;9.30;99.00;;;;;;5027960;28;20203;-87
2023/03/20 05:54:29;;;;;;;3.53;3.08;;;9.30;98.60;;;;;;5007658;28;20244;-89
2023/03/20 05:56:56;;;;;;;3.70;3.40;;;9.40;98.60;;;;;;5013993;28;20207;-87
2023/03/20 05:59:22;;;;;;;3.38;3.08;;;9.40;98.80;;;;;;5051666;28;20205;-87
2023/03/20 06:01:50;;;;;;;3.47;3.17;;;9.40;98.80;;;;;;5049476;28;20200;-88
2023/03/20 06:04:18;;;;;;;3.17;2.78;;;9.50;98.80;;;;;;5026360;28;20220;-89
2023/03/20 06:06:45;;;;;;;4.80;3.22;;;9.50;98.10;;;;;;5044074;28;20713;-88
2023/03/20 06:09:12;;;;;;;4.32;3.22;;;9.40;97.90;;;;;;5037751;28;20210;-88
2023/03/20 06:11:40;;;;;;;4.40;3.50;;;9.30;98.60;;;;;;5045294;28;20633;-92
2023/03/20 06:14:07;;;;;;;4.60;3.20;;;9.30;98.60;;;;;;5046233;28;20296;-86
2023/03/20 06:16:34;;;;;;;3.53;3.17;;;9.30;98.60;;;;;;5037251;28;20213;-89
2023/03/20 06:19:02;;;;;;;4.30;3.85;;;9.10;99.00;;;;;;5044979;28;20201;-91
2023/03/20 06:21:29;;;;;;;4.03;3.60;;;9.10;99.60;;;;;;5035031;28;20218;-90
2023/03/20 06:23:58;;;;;;;4.15;3.75;;;9.10;99.10;;;;;;5047888;28;20232;-89
2023/03/20 06:26:26;;;;;;;6.38;4.50;;;9.00;99.50;;;;;;5023736;28;20205;-85
2023/03/20 06:28:55;;;;;;;6.70;4.35;;;9.00;99.90;;;;;;5046327;28;20201;-86
2023/03/20 06:31:22;;;;;;;5.47;4.45;;;9.20;99.90;;;;;;5042847;28;20229;-91
2023/03/20 06:33:51;;;;;;;5.28;4.75;;;9.30;99.50;;;;;;5055719;28;20198;-91
2023/03/20 06:36:18;;;;;;;6.00;4.38;;;9.20;98.60;;;;;;5036449;28;20200;-90
2023/03/20 06:38:45;;;;;;;5.47;4.78;;;9.30;98.60;;;;;;5050511;28;20198;-91
2023/03/20 06:41:12;;;;;;;4.88;4.38;;;9.30;98.40;;;;;;5047147;28;21548;-90
2023/03/20 06:43:39;;;;;;;6.90;4.50;;;9.20;98.60;;;;;;5056729;28;20236;-90
2023/03/20 06:46:09;;;;;;;5.80;5.25;;;9.10;99.00;;;;;;5055371;28;21334;-91
2023/03/20 06:48:36;;;;;;;6.43;4.90;;;9.10;99.20;;;;;;5037937;28;20198;-89
2023/03/20 06:51:03;;;;;;;5.25;4.68;;;9.10;99.10;;;;;;5029393;28;20555;-91
2023/03/20 06:53:31;;;;;;;7.22;5.07;;;9.10;99.30;;;;;;5058095;28;20206;-90
2023/03/20 06:56:01;;;;;;;5.78;4.80;;;9.10;98.70;;;;;;5062252;28;20205;-90
2023/03/20 06:58:28;;;;;;;6.53;5.38;;;9.10;99.00;;;;;;5044914;28;20253;-88
2023/03/20 07:00:55;;;;;;;5.57;4.93;;;9.10;99.20;;;;;;5049050;28;20205;-91
2023/03/20 07:03:24;;;;;;;7.05;5.13;;;9.20;99.00;;;;;;5050629;28;20663;-88
2023/03/20 07:05:51;;;;;;;5.40;4.90;;;9.20;99.30;;;;;;5021351;28;20202;-89
2023/03/20 07:08:18;;;;;;;7.10;5.07;;;9.40;98.80;;;;;;5036658;28;20289;-90
2023/03/20 07:14:06;;;;;;;5.72;4.93;;;9.40;98.60;;;;;;5056476;28;20637;-88
2023/03/20 07:16:39;;;;;;;5.28;4.78;;;9.50;98.40;;;;;;5057508;28;20367;-89
2023/03/20 07:56:27;;;;;;;6.10;4.78;;;10.60;94.80;;;;;;5101499;28;20272;-91
2023/03/20 08:05:46;;;;;;;4.35;3.85;;;11.00;93.30;;;;;;5087462;28;20227;-91
2023/03/20 08:11:37;;;;;;;3.97;3.47;;;11.40;91.90;;;;;;5086931;28;20187;-92
2023/03/20 08:14:04;;;;;;;3.83;3.42;;;11.40;91.60;;;;;;5097793;28;20262;-92
2023/03/20 08:16:31;;;;;;;4.45;3.75;;;11.30;91.80;;;;;;5098334;28;20181;-92
2023/03/20 08:19:00;;;;;;;4.10;3.50;;;11.30;91.60;;;;;;5098102;28;20219;-92
2023/03/20 08:21:27;;;;;;;5.05;4.45;;;11.50;90.60;;;;;;5096501;28;20245;-92
2023/03/20 08:23:54;;;;;;;5.25;3.60;;;11.70;90.60;;;;;;5077719;28;20229;-92
2023/03/20 08:47:15;;;;;;;4.55;3.10;;;12.20;83.10;;;;;;5077004;28;20526;-92
2023/03/20 09:00:00;;;;;;;3.33;3.03;;;12.30;83.60;;;;;;5078537;28;20216;-92
2023/03/20 09:03:18;;;;;;;4.00;3.53;;;12.50;83.00;;;;;;5076946;28;20622;-92
2023/03/20 09:05:48;;;;;;;3.50;3.05;;;12.40;81.70;;;;;;5076981;28;20298;-92
2023/03/20 09:08:36;;;;;;;3.65;3.28;;;12.30;80.50;;;;;;5059603;28;20669;-88
2023/03/20 09:11:07;;;;;;;3.00;2.80;;;12.30;81.20;;;;;;5075224;28;20197;-88
2023/03/20 09:13:34;;;;;;;6.25;3.10;;;12.30;79.80;;;;;;5076743;28;20235;-88
2023/03/20 09:51:25;;;;;;;3.70;2.33;;;12.90;75.80;;;;;;5031548;28;20599;-86
2023/03/20 09:53:55;;;;;;;2.47;2.28;;;12.90;77.30;;;;;;5017241;28;20202;-85
2023/03/20 09:56:25;;;;;;;2.53;2.33;;;12.80;75.70;;;;;;5033761;28;20207;-86
2023/03/20 09:58:55;;;;;;;2.85;2.22;;;12.70;77.40;;;;;;5027215;28;20290;-85
2023/03/20 10:01:26;;;;;;;2.75;2.35;;;12.70;75.60;;;;;;5035144;28;20284;-86
2023/03/20 10:03:56;;;;;;;2.58;2.38;;;13.00;75.90;;;;;;5027614;28;20876;-85
2023/03/20 10:06:24;;;;;;;3.90;2.50;;;13.40;70.10;;;;;;5033489;28;20678;-87
2023/03/20 10:08:52;;;;;;;2.58;2.38;;;13.40;64.80;;;;;;5033711;28;20199;-85
2023/03/20 10:11:45;;;;;;;5.93;2.53;;;13.40;69.30;;;;;;5033357;28;20203;-86
2023/03/20 10:14:23;;;;;;;3.70;3.30;;;13.40;67.50;;;;;;5041894;28;20573;-86
2023/03/20 10:17:08;;;;;;;4.05;2.55;;;13.40;71.00;;;;;;5014870;28;20206;-85
2023/03/20 10:19:43;;;;;;;3.97;2.30;;;13.40;70.10;;;;;;5029615;28;20198;-86
2023/03/20 10:22:21;;;;;;;2.30;2.00;;;13.30;65.40;;;;;;5032972;28;20250;-85
2023/03/20 10:24:53;;;;;;;3.95;2.22;;;13.00;70.30;;;;;;5033472;28;20217;-86
2023/03/20 10:27:24;;;;;;;2.60;2.00;;;12.70;75.60;;;;;;5032969;28;20214;-88
2023/03/20 10:30:03;;;;;;;3.45;2.10;;;12.70;76.60;;;;;;5015510;28;20206;-86
2023/03/20 10:32:36;;;;;;;4.97;2.20;;;12.60;76.30;;;;;;5025627;28;20206;-85
2023/03/20 10:35:17;;;;;;;4.03;2.00;;;12.50;76.60;;;;;;5033974;28;20207;-86
2023/03/20 10:38:00;;;;;;;3.30;2.05;;;12.50;76.60;;;;;;5032195;28;20207;-85
2023/03/20 10:40:30;;;;;;;2.78;1.80;;;12.60;75.60;;;;;;5031127;28;20205;-85
2023/03/20 10:43:01;;;;;;;3.58;1.80;;;12.90;75.80;;;;;;5030250;28;20628;-86
2023/03/20 10:45:41;;;;;;;2.92;1.70;;;13.40;76.20;;;;;;5039626;28;20667;-90
2023/03/20 10:48:16;;;;;;;1.65;1.55;;;13.50;70.70;;;;;;5015219;28;20248;-87
2023/03/20 10:50:46;;;;;;;5.80;2.78;;;13.30;62.90;;;;;;5033030;28;20301;-89
2023/03/20 10:53:28;;;;;;;29.90;23.10;;;13.20;63.00;;;;;;5033930;28;20662;-89
2023/03/20 10:55:58;;;;;;;11.32;7.97;;;13.30;65.90;;;;;;5033371;28;20210;-88
2023/03/20 10:58:28;;;;;;;1.40;1.30;;;13.40;65.00;;;;;;5013381;28;20203;-86
2023/03/20 11:00:56;;;;;;;2.63;1.75;;;14.00;61.70;;;;;;5032598;28;20198;-87
2023/03/20 11:03:26;;;;;;;2.33;1.67;;;14.60;51.00;;;;;;5032830;28;20202;-86
2023/03/20 11:05:58;;;;;;;4.28;3.88;;;14.70;47.10;;;;;;5033036;28;20638;-86
2023/03/20 11:08:34;;;;;;;1.65;1.40;;;15.10;40.50;;;;;;5025062;28;20214;-86
2023/03/20 11:11:02;;;;;;;1.27;1.17;;;15.50;36.60;;;;;;5033568;28;20264;-87
2023/03/20 11:13:32;;;;;;;1.67;1.38;;;15.60;35.30;;;;;;5029688;28;20199;-87
2023/03/20 11:16:14;;;;;;;2.72;2.50;;;15.30;35.20;;;;;;5033192;28;20582;-87
2023/03/20 11:18:41;;;;;;;1.65;1.10;;;15.20;37.00;;;;;;5028500;28;20280;-87
2023/03/20 11:21:16;;;;;;;1.33;1.20;;;15.10;40.60;;;;;;5031062;28;20203;-87
2023/03/20 11:23:45;;;;;;;2.65;1.67;;;15.00;39.80;;;;;;5029908;28;20785;-88
2023/03/20 11:26:16;;;;;;;2.88;2.03;;;15.50;41.50;;;;;;5032645;28;20645;-86
2023/03/20 11:28:48;;;;;;;5.18;1.63;;;15.60;38.30;;;;;;5027344;28;20253;-86
2023/03/20 11:31:20;;;;;;;1.40;1.30;;;16.10;34.70;;;;;;5032588;28;20197;-86
2023/03/20 11:33:53;;;;;;;1.92;0.95;;;15.90;29.70;;;;;;5035726;28;20194;-86
2023/03/20 11:36:25;;;;;;;2.70;1.30;;;15.60;31.60;;;;;;5037766;28;20555;-87
2023/03/20 11:39:01;;;;;;;2.85;1.77;;;14.90;32.70;;;;;;5033299;28;20214;-86
2023/03/20 11:41:29;;;;;;;2.67;1.17;;;14.60;34.90;;;;;;5031844;28;20205;-87
2023/03/20 11:43:56;;;;;;;2.15;1.20;;;14.40;35.50;;;;;;5035471;28;20198;-88
2023/03/20 11:46:24;;;;;;;2.05;1.40;;;14.40;36.40;;;;;;5035003;28;20251;-86
2023/03/20 11:49:18;;;;;;;2.08;1.23;;;14.40;35.50;;;;;;5035760;28;20202;-87
2023/03/20 11:51:45;;;;;;;1.75;1.38;;;14.30;37.60;;;;;;5035393;28;20659;-86
2023/03/20 11:54:18;;;;;;;1.83;1.15;;;14.50;37.40;;;;;;5036035;28;20202;-87
2023/03/20 11:56:54;;;;;;;1.67;1.33;;;14.50;34.80;;;;;;5035208;28;20214;-86
2023/03/20 11:59:22;;;;;;;2.47;1.15;;;15.00;35.30;;;;;;5029816;28;20973;-87
2023/03/20 12:01:51;;;;;;;1.23;1.13;;;14.90;34.20;;;;;;5043134;28;20643;-87
2023/03/20 12:04:19;;;;;;;1.83;1.23;;;15.00;35.70;;;;;;5027247;28;20207;-87
2023/03/20 12:06:50;;;;;;;1.25;1.15;;;15.30;35.50;;;;;;5036342;28;20234;-87
2023/03/20 12:09:41;;;;;;;3.40;1.40;;;15.60;35.10;;;;;;5036824;28;20210;-90
2023/03/20 12:12:16;;;;;;;1.30;1.10;;;15.80;31.90;;;;;;5025420;28;20209;-87
2023/03/20 12:14:50;;;;;;;2.15;1.10;;;15.20;28.00;;;;;;5037255;28;20252;-87
2023/03/20 12:17:43;;;;;;;5.20;2.90;;;14.80;31.50;;;;;;5023273;28;20194;-87
2023/03/20 12:20:25;;;;;;;2.38;1.10;;;14.70;32.70;;;;;;5034648;28;20198;-87
2023/03/20 12:23:01;;;;;;;2.78;1.20;;;14.40;31.60;;;;;;5013326;28;20224;-87
2023/03/20 12:25:36;;;;;;;2.05;1.40;;;14.10;33.10;;;;;;5029114;28;20214;-87
2023/03/20 12:28:12;;;;;;;1.67;1.40;;;14.10;35.60;;;;;;5037349;28;20197;-87
2023/03/20 12:31:02;;;;;;;2.38;1.75;;;14.10;35.40;;;;;;5036439;28;20204;-86
2023/03/20 12:33:41;;;;;;;1.98;1.40;;;14.20;37.10;;;;;;5014879;28;20210;-87
2023/03/20 12:36:15;;;;;;;1.52;1.40;;;14.40;36.30;;;;;;5028439;28;20233;-86
2023/03/20 12:38:43;;;;;;;4.28;1.33;;;14.50;35.00;;;;;;5027190;28;20303;-86
2023/03/20 12:41:16;;;;;;;3.13;1.50;;;14.50;34.30;;;;;;5036160;28;20244;-86
2023/03/20 12:44:16;;;;;;;1.60;1.50;;;14.40;34.50;;;;;;5021990;28;20198;-87
2023/03/20 12:46:48;;;;;;;1.90;1.30;;;14.00;36.40;;;;;;5031065;28;20594;-88
2023/03/20 12:49:27;;;;;;;2.45;1.70;;;14.10;38.00;;;;;;5036375;28;20221;-87
2023/03/20 12:52:02;;;;;;;5.60;1.75;;;13.90;38.80;;;;;;5034664;28;20236;-87
2023/03/20 12:54:43;;;;;;;1.40;1.30;;;13.70;40.30;;;;;;5028227;28;20660;-87
2023/03/20 12:57:24;;;;;;;1.88;1.30;;;13.50;39.00;;;;;;5034799;28;20213;-86
2023/03/20 13:00:09;;;;;;;1.83;1.40;;;13.40;39.10;;;;;;5036586;28;20214;-86
2023/03/20 13:02:48;;;;;;;1.67;1.48;;;13.40;41.80;;;;;;5026905;28;20284;-85
2023/03/20 13:05:25;;;;;;;2.35;1.40;;;13.20;40.00;;;;;;5039575;28;20213;-86
2023/03/20 13:08:08;;;;;;;2.15;1.70;;;13.20;45.00;;;;;;5041044;28;20198;-86
2023/03/20 13:16:47;;;;;;;1.63;1.52;;;13.10;47.10;;;;;;4975810;28;20200;-86
2023/03/20 13:19:26;;;;;;;1.45;1.33;;;13.20;49.50;;;;;;5044324;28;20203;-87
2023/03/20 13:21:58;;;;;;;1.40;1.30;;;13.20;45.90;;;;;;5035760;28;20237;-87
2023/03/20 13:34:43;;;;;;;1.83;1.30;;;13.20;48.00;;;;;;4968639;28;20207;-85
2023/03/20 13:37:16;;;;;;;1.92;1.45;;;13.50;43.20;;;;;;5017737;28;20201;-86
2023/03/20 13:39:47;;;;;;;1.83;1.13;;;13.80;44.70;;;;;;5034906;28;20198;-87
2023/03/20 13:42:19;;;;;;;2.53;1.25;;;14.00;40.60;;;;;;5033270;28;20206;-86
2023/03/20 13:44:49;;;;;;;5.18;1.60;;;14.10;39.00;;;;;;5033935;28;20201;-86
2023/03/20 13:47:22;;;;;;;1.95;1.55;;;14.20;39.30;;;;;;5033799;28;20282;-86
2023/03/20 13:49:56;;;;;;;2.42;1.50;;;14.30;35.40;;;;;;5031241;28;20215;-86
2023/03/20 13:52:27;;;;;;;1.50;1.40;;;14.20;38.20;;;;;;5032382;28;20209;-87
2023/03/20 13:55:12;;;;;;;1.38;1.27;;;14.20;38.50;;;;;;5033221;28;20202;-87
2023/03/20 13:57:54;;;;;;;2.60;1.45;;;14.10;37.70;;;;;;5036447;28;20251;-87
2023/03/20 14:00:27;;;;;;;3.17;1.60;;;14.10;37.40;;;;;;5033698;28;20231;-86
2023/03/20 14:03:12;;;;;;;2.65;1.90;;;14.10;38.20;;;;;;5035099;28;20198;-86
2023/03/20 14:05:40;;;;;;;1.40;1.30;;;14.20;35.50;;;;;;5034387;28;20536;-87
2023/03/20 14:08:35;;;;;;;1.50;1.40;;;14.10;36.40;;;;;;5040936;28;20202;-87
2023/03/20 14:11:13;;;;;;;1.38;1.27;;;14.10;35.80;;;;;;5042271;28;20222;-86
2023/03/20 14:13:45;;;;;;;2.20;1.30;;;14.00;35.10;;;;;;5016039;28;20276;-86
2023/03/20 14:16:16;;;;;;;2.90;2.65;;;14.00;37.00;;;;;;5015903;28;20658;-87
2023/03/20 14:18:47;;;;;;;6.13;5.35;;;14.10;35.10;;;;;;5014808;28;20565;-86
2023/03/20 14:21:19;;;;;;;3.58;1.40;;;13.90;36.10;;;;;;5014762;28;20230;-85
2023/03/20 14:23:49;;;;;;;3.53;2.22;;;13.70;37.50;;;;;;5107478;22;20267;-83
2023/03/20 14:26:21;;;;;;;1.42;1.33;;;13.50;38.30;;;;;;5052427;28;20715;-84
2023/03/20 14:28:58;;;;;;;3.70;1.50;;;13.50;38.90;;;;;;5082107;28;20204;-83
2023/03/20 14:31:29;;;;;;;4.20;3.80;;;13.40;38.00;;;;;;5069669;28;20189;-83
2023/03/20 14:34:16;;;;;;;4.05;2.67;;;13.40;40.30;;;;;;5080237;28;20238;-84
2023/03/20 14:36:55;;;;;;;2.65;1.73;;;13.50;43.00;;;;;;5071847;28;20204;-83
2023/03/20 14:42:53;;;;;;;1.33;1.23;;;13.70;40.00;;;;;;5073898;28;20177;-84
2023/03/20 14:45:31;;;;;;;1.67;1.50;;;13.80;39.10;;;;;;5055313;28;20668;-86
2023/03/20 14:48:04;;;;;;;2.20;1.42;;;13.90;38.80;;;;;;5073081;28;20692;-84
2023/03/20 14:50:34;;;;;;;4.65;3.42;;;14.00;36.60;;;;;;5073357;28;20632;-85
2023/03/20 14:53:13;;;;;;;8.40;5.63;;;14.00;36.00;;;;;;5068083;28;20197;-88
2023/03/20 14:56:04;;;;;;;3.00;1.73;;;14.00;36.30;;;;;;5087433;28;20718;-85
2023/03/20 15:02:42;;;;;;;1.70;1.60;;;13.80;38.00;;;;;;4972678;28;20204;-86
2023/03/20 15:12:47;;;;;;;1.88;1.58;;;13.50;38.40;;;;;;4915868;29;20382;-85
2023/03/20 15:21:59;;;;;;;2.17;1.63;;;13.40;37.10;;;;;;4936575;29;20222;-85
2023/03/20 15:32:11;;;;;;;2.70;1.60;;;13.30;37.90;;;;;;4915835;29;20229;-86
2023/03/20 15:35:03;;;;;;;1.83;1.70;;;13.30;37.50;;;;;;4915597;29;20220;-85
2023/03/20 15:37:34;;;;;;;3.85;1.70;;;13.20;41.30;;;;;;4932573;28;20213;-85
2023/03/20 15:40:40;;;;;;;3.30;1.70;;;13.10;41.20;;;;;;5045231;28;20206;-87
2023/03/20 15:43:14;;;;;;;3.92;1.50;;;13.00;40.00;;;;;;5042154;28;20205;-85
2023/03/20 15:45:43;;;;;;;1.67;1.58;;;12.90;40.70;;;;;;5051460;28;20284;-85
2023/03/20 15:48:15;;;;;;;2.72;1.65;;;13.00;40.80;;;;;;5035501;28;20202;-86
2023/03/20 15:50:45;;;;;;;1.63;1.52;;;13.00;40.90;;;;;;5053202;28;20260;-86
2023/03/20 15:56:48;;;;;;;1.70;1.60;;;13.00;40.60;;;;;;5037572;28;20209;-87
2023/03/20 15:59:17;;;;;;;3.70;1.85;;;12.80;40.90;;;;;;5050376;28;20390;-86
2023/03/20 16:01:46;;;;;;;2.35;1.60;;;12.70;43.00;;;;;;5030765;28;20198;-85
2023/03/20 16:04:15;;;;;;;1.55;1.45;;;12.60;43.20;;;;;;5044423;28;20209;-86
2023/03/20 16:06:47;;;;;;;2.05;1.67;;;12.60;43.90;;;;;;5047733;28;20231;-86